createdAt,value
2019-04-18T00:02:46.761Z,9.93
2019-04-18T00:05:24.852Z,9.20
2019-04-18T00:07:53.831Z,9.73
2019-04-18T00:10:23.231Z,9.70
2019-04-18T00:12:56.201Z,8.80
2019-04-18T00:15:38.350Z,8.93
2019-04-18T00:17:55.844Z,8.77
2019-04-18T00:20:25.048Z,7.90
2019-04-18T00:22:56.184Z,9.10
2019-04-18T00:25:25.954Z,8.47
2019-04-18T00:27:55.425Z,8.70
2019-04-18T00:30:25.326Z,8.83
2019-04-18T00:32:54.302Z,7.73
2019-04-18T00:35:23.411Z,8.37
2019-04-18T00:37:53.088Z,7.63
2019-04-18T00:40:29.234Z,7.37
2019-04-18T00:42:59.254Z,7.40
2019-04-18T00:45:28.636Z,7.83
2019-04-18T00:47:57.737Z,8.07
2019-04-18T00:50:26.845Z,7.67
2019-04-18T00:52:55.952Z,8.03
2019-04-18T00:55:25.012Z,8.20
2019-04-18T00:57:54.260Z,8.40
2019-04-18T01:00:29.028Z,7.40
2019-04-18T01:02:57.101Z,8.00
2019-04-18T01:05:26.855Z,8.20
2019-04-18T01:07:55.793Z,8.30
2019-04-18T01:10:24.815Z,8.27
2019-04-18T01:12:54.131Z,7.80
2019-04-18T01:15:24.821Z,8.00
2019-04-18T01:17:53.884Z,8.33
2019-04-18T01:20:24.259Z,7.60
2019-04-18T01:22:53.826Z,6.83
2019-04-18T01:25:22.753Z,8.33
2019-04-18T01:27:52.777Z,7.63
2019-04-18T01:30:24.136Z,7.73
2019-04-18T01:32:53.363Z,8.07
2019-04-18T01:35:23.533Z,8.33
2019-04-18T01:37:53.330Z,8.10
2019-04-18T01:40:22.678Z,8.10
2019-04-18T01:43:05.857Z,7.27
2019-04-18T01:45:52.107Z,8.60
2019-04-18T01:48:23.417Z,7.93
2019-04-18T01:50:52.609Z,8.57
2019-04-18T01:53:24.791Z,9.07
2019-04-18T01:55:53.498Z,8.33
2019-04-18T01:58:22.515Z,7.37
2019-04-18T02:00:54.871Z,8.40
2019-04-18T02:03:24.230Z,8.73
2019-04-18T02:05:53.594Z,8.17
2019-04-18T02:08:23.273Z,7.60
2019-04-18T02:10:54.110Z,8.90
2019-04-18T02:13:26.426Z,9.50
2019-04-18T02:15:55.479Z,9.33
2019-04-18T02:18:24.564Z,7.97
2019-04-18T02:20:53.579Z,9.17
2019-04-18T02:23:23.049Z,8.67
2019-04-18T02:25:52.270Z,8.50
2019-04-18T02:28:21.404Z,8.87
2019-04-18T02:30:56.360Z,7.97
2019-04-18T02:33:21.407Z,10.00
2019-04-18T02:35:50.359Z,8.53
2019-04-18T02:38:21.068Z,8.93
2019-04-18T02:40:50.405Z,8.10
2019-04-18T02:43:22.173Z,8.73
2019-04-18T02:45:50.843Z,9.20
2019-04-18T02:48:22.078Z,9.53
2019-04-18T02:50:50.994Z,10.10
2019-04-18T02:53:23.815Z,9.43
2019-04-18T02:56:06.402Z,8.80
2019-04-18T02:58:46.195Z,9.53
2019-04-18T03:01:34.668Z,9.20
2019-04-18T03:04:10.455Z,9.77
2019-04-18T03:06:43.908Z,9.90
2019-04-18T03:09:12.844Z,8.90
2019-04-18T03:11:41.937Z,9.70
2019-04-18T03:14:12.189Z,9.77
2019-04-18T03:16:50.458Z,8.40
2019-04-18T03:19:22.913Z,9.33
2019-04-18T03:21:51.973Z,9.60
2019-04-18T03:24:21.281Z,8.80
2019-04-18T03:26:51.164Z,9.63
2019-04-18T03:29:21.104Z,9.10
2019-04-18T03:31:57.864Z,9.67
2019-04-18T03:34:21.081Z,8.87
2019-04-18T03:37:12.143Z,9.80
2019-04-18T03:39:41.352Z,8.90
2019-04-18T03:42:10.600Z,9.80
2019-04-18T03:44:48.269Z,10.17
2019-04-18T03:47:18.295Z,8.47
2019-04-18T03:49:47.446Z,9.73
2019-04-18T03:52:16.459Z,9.67
2019-04-18T03:54:47.789Z,10.37
2019-04-18T03:57:16.428Z,9.13
2019-04-18T03:59:48.109Z,9.87
2019-04-18T04:02:16.606Z,8.90
2019-04-18T04:04:45.613Z,10.67
2019-04-18T04:07:14.675Z,9.47
2019-04-18T04:09:43.789Z,10.90
2019-04-18T04:12:12.855Z,10.27
2019-04-18T04:14:42.246Z,10.00
2019-04-18T04:17:11.608Z,9.27
2019-04-18T04:19:41.159Z,9.53
2019-04-18T04:22:12.837Z,8.60
2019-04-18T04:24:41.906Z,9.60
2019-04-18T04:27:11.945Z,9.53
2019-04-18T04:29:42.849Z,9.27
2019-04-18T04:32:11.947Z,9.47
2019-04-18T04:34:43.534Z,9.60
2019-04-18T04:37:12.374Z,8.93
2019-04-18T04:39:41.672Z,9.70
2019-04-18T04:42:14.093Z,8.23
2019-04-18T04:44:41.819Z,8.90
2019-04-18T04:47:36.626Z,9.60
2019-04-18T04:50:12.854Z,8.97
2019-04-18T04:52:43.049Z,9.70
2019-04-18T04:55:14.461Z,9.20
2019-04-18T04:57:48.815Z,8.90
2019-04-18T05:00:33.496Z,10.33
2019-04-18T05:03:02.747Z,9.57
2019-04-18T05:05:31.933Z,9.87
2019-04-18T05:08:01.341Z,9.13
2019-04-18T05:10:30.639Z,9.23
2019-04-18T05:13:02.125Z,8.63
2019-04-18T05:15:31.289Z,8.70
2019-04-18T05:18:00.482Z,11.00
2019-04-18T05:20:29.985Z,9.80
2019-04-18T05:22:59.284Z,9.77
2019-04-18T05:25:28.686Z,9.40
2019-04-18T05:27:57.886Z,9.23
2019-04-18T05:30:26.897Z,9.40
2019-04-18T05:32:55.968Z,9.47
2019-04-18T05:35:24.968Z,9.20
2019-04-18T05:37:54.028Z,8.87
2019-04-18T05:40:29.587Z,9.67
2019-04-18T05:42:59.001Z,9.00
2019-04-18T05:45:28.089Z,10.00
2019-04-18T05:48:01.622Z,9.00
2019-04-18T05:50:42.172Z,9.30
2019-04-18T05:53:33.173Z,10.10
2019-04-18T05:56:01.912Z,8.80
2019-04-18T05:58:35.094Z,9.40
2019-04-18T06:01:42.255Z,9.07
2019-04-18T06:04:33.486Z,9.20
2019-04-18T06:07:26.752Z,10.03
2019-04-18T06:09:55.334Z,10.27
2019-04-18T06:12:31.661Z,9.63
2019-04-18T06:15:24.245Z,9.47
2019-04-18T06:17:58.119Z,9.13
2019-04-18T06:20:31.732Z,10.07
2019-04-18T06:22:58.013Z,8.77
2019-04-18T06:25:40.733Z,9.40
2019-04-18T06:28:23.640Z,9.17
2019-04-18T06:31:01.519Z,9.30
2019-04-18T06:33:36.435Z,10.40
2019-04-18T06:36:05.855Z,10.53
2019-04-18T06:38:35.111Z,9.73
2019-04-18T06:41:05.556Z,9.73
2019-04-18T06:43:35.102Z,9.77
2019-04-18T06:46:04.161Z,9.87
2019-04-18T06:48:35.966Z,9.40
2019-04-18T06:51:06.776Z,9.23
2019-04-18T06:53:35.420Z,10.47
2019-04-18T06:56:07.278Z,9.07
2019-04-18T06:58:39.765Z,10.70
2019-04-18T07:01:07.800Z,10.13
2019-04-18T07:03:37.022Z,10.67
2019-04-18T07:06:10.357Z,9.60
2019-04-18T07:08:45.264Z,10.03
2019-04-18T07:11:20.724Z,9.67
2019-04-18T07:13:56.241Z,10.27
2019-04-18T07:16:24.183Z,10.17
2019-04-18T07:18:53.144Z,10.40
2019-04-18T07:21:29.938Z,9.53
2019-04-18T07:24:00.553Z,9.57
2019-04-18T07:26:29.715Z,10.53
2019-04-18T07:28:59.655Z,9.13
2019-04-18T07:31:32.166Z,10.70
2019-04-18T07:33:59.707Z,10.27
2019-04-18T07:36:28.659Z,10.37
2019-04-18T07:39:00.959Z,10.53
2019-04-18T07:41:28.548Z,9.30
2019-04-18T07:43:57.500Z,9.30
2019-04-18T07:46:29.695Z,9.40
2019-04-18T07:48:57.624Z,10.13
2019-04-18T07:51:26.628Z,9.83
2019-04-18T07:53:57.725Z,10.60
2019-04-18T07:56:27.164Z,10.07
2019-04-18T07:59:05.602Z,9.60
2019-04-18T08:01:28.084Z,9.90
2019-04-18T08:04:11.634Z,8.07
2019-04-18T08:06:28.447Z,8.47
2019-04-18T08:08:57.297Z,8.43
2019-04-18T08:11:29.796Z,8.80
2019-04-18T08:13:57.181Z,8.20
2019-04-18T08:16:26.024Z,8.10
2019-04-18T08:18:55.003Z,8.57
2019-04-18T08:21:24.062Z,7.70
2019-04-18T08:23:53.010Z,8.13
2019-04-18T08:26:25.143Z,7.63
2019-04-18T08:28:52.564Z,6.67
2019-04-18T08:31:21.687Z,7.10
2019-04-18T08:33:50.748Z,7.57
2019-04-18T08:36:20.502Z,7.57
2019-04-18T08:38:57.065Z,7.07
2019-04-18T08:41:48.398Z,7.27
2019-04-18T08:44:27.210Z,7.20
2019-04-18T08:46:56.629Z,6.70
2019-04-18T08:49:32.855Z,6.10
2019-04-18T08:52:32.288Z,6.93
2019-04-18T08:55:32.600Z,7.03
2019-04-18T08:58:01.867Z,6.43
2019-04-18T09:00:31.070Z,6.27
2019-04-18T09:03:00.059Z,6.20
2019-04-18T09:05:31.306Z,7.10
2019-04-18T09:08:03.355Z,6.70
2019-04-18T09:10:31.536Z,6.40
2019-04-18T09:13:00.840Z,7.00
2019-04-18T09:15:31.749Z,6.67
2019-04-18T09:18:01.450Z,6.07
2019-04-18T09:20:33.389Z,6.50
2019-04-18T09:23:06.481Z,6.50
2019-04-18T09:25:33.326Z,6.70
2019-04-18T09:28:04.392Z,7.00
2019-04-18T09:30:33.282Z,6.50
2019-04-18T09:33:02.334Z,5.80
2019-04-18T09:35:44.838Z,6.50
2019-04-18T09:38:02.411Z,6.50
2019-04-18T09:40:31.449Z,6.10
2019-04-18T09:43:00.493Z,7.70
2019-04-18T09:45:31.290Z,6.47
2019-04-18T09:48:00.187Z,6.20
2019-04-18T09:50:29.209Z,5.90
2019-04-18T09:52:58.407Z,6.20
2019-04-18T09:55:27.327Z,5.83
2019-04-18T09:57:56.562Z,5.77
2019-04-18T10:00:26.611Z,8.63
2019-04-18T10:02:57.508Z,6.80
2019-04-18T10:05:27.743Z,8.13
2019-04-18T10:07:57.192Z,7.87
2019-04-18T10:10:26.610Z,8.27
2019-04-18T10:12:55.663Z,8.17
2019-04-18T10:15:26.967Z,7.90
2019-04-18T10:17:55.433Z,7.50
2019-04-18T10:20:28.878Z,8.23
2019-04-18T10:22:57.275Z,7.83
2019-04-18T10:25:35.458Z,7.57
2019-04-18T10:28:01.837Z,8.50
2019-04-18T10:30:38.529Z,6.93
2019-04-18T10:33:08.060Z,7.30
2019-04-18T10:35:37.760Z,7.60
2019-04-18T10:38:09.837Z,7.70
2019-04-18T10:40:38.810Z,7.60
2019-04-18T10:43:08.046Z,6.60
2019-04-18T10:45:38.060Z,7.33
2019-04-18T10:48:08.463Z,7.00
2019-04-18T10:50:37.670Z,6.57
2019-04-18T10:53:07.078Z,7.70
2019-04-18T10:55:36.100Z,6.70
2019-04-18T10:58:05.728Z,6.70
2019-04-18T11:00:43.079Z,7.20
2019-04-18T11:03:06.178Z,7.93
2019-04-18T11:05:35.118Z,8.43
2019-04-18T11:08:04.658Z,7.87
2019-04-18T11:10:33.718Z,7.30
2019-04-18T11:13:02.738Z,6.80
2019-04-18T11:15:31.656Z,7.67
2019-04-18T11:18:00.623Z,7.37
2019-04-18T11:20:29.573Z,6.30
2019-04-18T11:22:58.459Z,6.13
2019-04-18T11:25:27.471Z,6.60
2019-04-18T11:27:56.552Z,7.23
2019-04-18T11:30:29.046Z,6.63
2019-04-18T11:32:56.628Z,7.10
2019-04-18T11:35:25.557Z,6.63
2019-04-18T11:37:54.475Z,7.57
2019-04-18T11:40:29.123Z,6.90
2019-04-18T11:42:55.382Z,6.93
2019-04-18T11:45:25.085Z,7.23
2019-04-18T11:47:54.174Z,7.20
2019-04-18T11:50:23.733Z,7.93
2019-04-18T11:52:52.978Z,7.10
2019-04-18T11:55:21.974Z,7.20
2019-04-18T11:57:51.025Z,8.70
2019-04-18T12:00:55.242Z,7.73
2019-04-18T12:03:49.083Z,7.50
2019-04-18T12:06:18.888Z,7.70
2019-04-18T12:08:47.861Z,8.30
2019-04-18T12:11:16.825Z,7.33
2019-04-18T12:13:45.759Z,7.40
2019-04-18T12:16:15.082Z,7.20
2019-04-18T12:18:44.174Z,6.93
2019-04-18T12:21:13.088Z,8.20
2019-04-18T12:23:41.959Z,7.60
2019-04-18T12:26:11.073Z,8.17
2019-04-18T12:28:40.155Z,8.53
2019-04-18T12:31:09.207Z,8.87
2019-04-18T12:33:38.054Z,7.73
2019-04-18T12:36:10.422Z,8.87
2019-04-18T12:38:39.773Z,9.30
2019-04-18T12:41:11.466Z,8.20
2019-04-18T12:43:40.199Z,7.57
2019-04-18T12:46:10.654Z,7.97
2019-04-18T12:48:39.589Z,8.73
2019-04-18T12:51:08.668Z,8.90
2019-04-18T12:53:37.893Z,8.60
2019-04-18T12:56:07.585Z,8.30
2019-04-18T12:58:36.649Z,7.83
2019-04-18T13:01:06.814Z,8.30
2019-04-18T13:03:38.555Z,8.97
2019-04-18T13:06:07.755Z,7.57
2019-04-18T13:08:46.076Z,8.27
2019-04-18T13:11:22.260Z,8.00
2019-04-18T13:14:22.306Z,8.10
2019-04-18T13:16:56.142Z,7.17
2019-04-18T13:19:25.095Z,8.63
2019-04-18T13:21:54.155Z,7.30
2019-04-18T13:24:23.174Z,8.67
2019-04-18T13:26:52.558Z,8.70
2019-04-18T13:29:21.651Z,7.70
2019-04-18T13:32:02.541Z,7.03
2019-04-18T13:34:21.600Z,7.40
2019-04-18T13:36:50.671Z,7.83
2019-04-18T13:39:21.224Z,7.30
2019-04-18T13:41:50.400Z,7.30
2019-04-18T13:44:19.444Z,7.60
2019-04-18T13:46:48.866Z,7.90
2019-04-18T13:49:18.091Z,7.73
2019-04-18T13:51:47.255Z,8.83
2019-04-18T13:54:16.414Z,7.13
2019-04-18T13:56:45.445Z,7.37
2019-04-18T13:59:15.022Z,7.53
2019-04-18T14:01:44.191Z,8.13
2019-04-18T14:04:13.306Z,7.93
2019-04-18T14:06:42.385Z,7.00
2019-04-18T14:09:12.363Z,7.63
2019-04-18T14:11:41.459Z,8.30
2019-04-18T14:14:10.543Z,7.87
2019-04-18T14:16:39.615Z,8.63
2019-04-18T14:19:08.694Z,8.40
2019-04-18T14:21:37.798Z,8.63
2019-04-18T14:24:06.806Z,8.00
2019-04-18T14:26:35.882Z,7.83
2019-04-18T14:29:05.200Z,7.00
2019-04-18T14:31:34.314Z,7.90
2019-04-18T14:34:03.342Z,8.97
2019-04-18T14:36:32.369Z,7.43
2019-04-18T14:39:01.450Z,8.53
2019-04-18T14:41:30.559Z,7.10
2019-04-18T14:43:59.981Z,7.00
2019-04-18T14:46:28.697Z,6.33
2019-04-18T14:48:57.678Z,7.50
2019-04-18T14:51:26.754Z,6.53
2019-04-18T14:53:55.769Z,7.50
2019-04-18T14:56:25.246Z,7.93
2019-04-18T14:58:54.401Z,8.20
2019-04-18T15:01:24.312Z,8.53
2019-04-18T15:03:53.616Z,8.63
2019-04-18T15:06:23.080Z,7.57
2019-04-18T15:08:53.081Z,6.80
2019-04-18T15:11:23.316Z,6.70
2019-04-18T15:13:52.277Z,7.37
2019-04-18T15:16:21.445Z,8.70
2019-04-18T15:18:50.311Z,7.93
2019-04-18T15:21:19.804Z,8.07
2019-04-18T15:23:48.960Z,8.00
2019-04-18T15:26:18.734Z,8.50
2019-04-18T15:28:51.489Z,7.53
2019-04-18T15:31:20.548Z,7.57
2019-04-18T15:33:51.995Z,8.67
2019-04-18T15:36:21.936Z,7.07
2019-04-18T15:38:51.887Z,8.20
2019-04-18T15:41:21.062Z,9.23
2019-04-18T15:43:50.975Z,8.60
2019-04-18T15:46:27.641Z,7.73
2019-04-18T15:48:56.635Z,8.83
2019-04-18T15:51:25.664Z,8.40
2019-04-18T15:53:54.657Z,8.37
2019-04-18T15:56:23.729Z,8.07
2019-04-18T15:58:52.328Z,8.50
2019-04-18T16:01:21.679Z,8.03
2019-04-18T16:03:51.445Z,7.50
2019-04-18T16:06:20.827Z,7.70
2019-04-18T16:08:49.878Z,7.77
2019-04-18T16:11:18.983Z,7.97
2019-04-18T16:13:50.713Z,8.37
2019-04-18T16:16:18.577Z,7.60
2019-04-18T16:18:47.891Z,8.00
2019-04-18T16:21:17.015Z,8.33
2019-04-18T16:23:50.007Z,8.10
2019-04-18T16:26:19.704Z,8.53
2019-04-18T16:28:48.981Z,9.00
2019-04-18T16:31:17.971Z,8.53
2019-04-18T16:33:47.035Z,8.30
2019-04-18T16:36:16.062Z,8.67
2019-04-18T16:38:45.011Z,7.83
2019-04-18T16:41:14.048Z,7.83
2019-04-18T16:43:43.111Z,8.30
2019-04-18T16:46:12.468Z,8.20
2019-04-18T16:48:41.601Z,8.13
2019-04-18T16:51:10.651Z,7.80
2019-04-18T16:53:39.541Z,6.53
2019-04-18T16:56:08.628Z,6.87
2019-04-18T16:58:37.656Z,7.93
2019-04-18T17:01:06.765Z,6.93
2019-04-18T17:03:50.587Z,6.60
2019-04-18T17:06:07.092Z,6.70
2019-04-18T17:08:36.343Z,7.60
2019-04-18T17:11:07.719Z,6.80
2019-04-18T17:13:36.467Z,7.40
2019-04-18T17:16:05.799Z,7.13
2019-04-18T17:18:34.769Z,8.10
2019-04-18T17:21:03.996Z,8.40
2019-04-18T17:23:33.135Z,7.07
2019-04-18T17:26:11.659Z,7.97
2019-04-18T17:28:40.711Z,7.83
2019-04-18T17:31:12.362Z,6.90
2019-04-18T17:33:41.305Z,7.20
2019-04-18T17:36:22.650Z,7.97
2019-04-18T17:38:53.592Z,7.33
2019-04-18T17:41:18.577Z,7.37
2019-04-18T17:43:49.066Z,8.00
2019-04-18T17:46:18.674Z,8.70
2019-04-18T17:48:46.247Z,7.10
2019-04-18T17:51:26.773Z,7.27
2019-04-18T17:53:57.544Z,8.07
2019-04-18T17:56:24.244Z,8.07
2019-04-18T17:58:48.821Z,8.57
2019-04-18T18:01:19.115Z,8.07
2019-04-18T18:03:52.268Z,7.20
2019-04-18T18:06:24.194Z,7.30
2019-04-18T18:08:59.142Z,8.47
2019-04-18T18:11:21.623Z,8.60
2019-04-18T18:13:57.593Z,8.93
2019-04-18T18:16:28.519Z,8.23
2019-04-18T18:18:56.902Z,8.67
2019-04-18T18:21:34.280Z,7.80
2019-04-18T18:23:58.951Z,8.50
2019-04-18T18:26:31.784Z,8.87
2019-04-18T18:29:05.065Z,9.33
2019-04-18T18:31:39.086Z,8.90
2019-04-18T18:34:13.885Z,9.23
2019-04-18T18:36:48.566Z,10.20
2019-04-18T18:39:25.694Z,9.70
2019-04-18T18:41:53.306Z,11.20
2019-04-18T18:44:21.694Z,9.97
2019-04-18T18:46:51.967Z,10.20
2019-04-18T18:49:24.482Z,9.90
2019-04-18T18:51:55.246Z,9.97
2019-04-18T18:54:30.550Z,9.63
2019-04-18T18:56:59.133Z,9.07
2019-04-18T18:59:30.531Z,9.20
2019-04-18T19:02:03.666Z,9.27
2019-04-18T19:04:27.607Z,8.90
2019-04-18T19:06:58.699Z,10.03
2019-04-18T19:09:43.766Z,10.20
2019-04-18T19:12:10.986Z,9.80
2019-04-18T19:14:36.859Z,9.50
2019-04-18T19:17:09.583Z,9.20
2019-04-18T19:19:31.687Z,9.30
2019-04-18T19:22:03.354Z,10.07
2019-04-18T19:24:31.591Z,9.80
2019-04-18T19:27:13.425Z,9.90
2019-04-18T19:29:39.817Z,8.60
2019-04-18T19:32:06.106Z,9.30
2019-04-18T19:34:33.559Z,9.07
2019-04-18T19:37:18.022Z,10.40
2019-04-18T19:39:55.979Z,10.20
2019-04-18T19:42:10.308Z,10.10
2019-04-18T19:44:36.143Z,10.07
2019-04-18T19:47:06.605Z,9.37
2019-04-18T19:49:36.046Z,8.73
2019-04-18T19:52:08.081Z,8.93
2019-04-18T19:54:39.279Z,9.30
2019-04-18T19:57:07.070Z,9.97
2019-04-18T19:59:36.063Z,8.27
2019-04-18T20:02:06.868Z,10.13
2019-04-18T20:04:36.371Z,9.53
2019-04-18T20:07:21.825Z,8.47
2019-04-18T20:09:50.304Z,8.80
2019-04-18T20:12:22.561Z,8.73
2019-04-18T20:14:38.278Z,9.03
2019-04-18T20:17:10.794Z,8.13
2019-04-18T20:19:39.427Z,9.60
2019-04-18T20:22:11.148Z,8.97
2019-04-18T20:24:39.905Z,9.30
2019-04-18T20:27:14.985Z,9.47
2019-04-18T20:29:43.898Z,9.27
2019-04-18T20:32:15.374Z,8.83
2019-04-18T20:34:46.694Z,8.20
2019-04-18T20:37:32.927Z,9.10
2019-04-18T20:40:08.885Z,10.20
2019-04-18T20:42:35.235Z,9.23
2019-04-18T20:44:53.118Z,9.50
2019-04-18T20:47:26.838Z,9.83
2019-04-18T20:50:01.970Z,8.80
2019-04-18T20:52:40.268Z,8.80
2019-04-18T20:55:09.558Z,8.50
2019-04-18T20:57:22.990Z,9.70
2019-04-18T20:59:52.033Z,10.20
2019-04-18T21:02:21.828Z,10.13
2019-04-18T21:04:54.827Z,9.70
2019-04-18T21:07:32.803Z,8.37
2019-04-18T21:10:01.436Z,8.80
2019-04-18T21:12:23.959Z,9.33
2019-04-18T21:14:53.254Z,9.33
2019-04-18T21:17:24.412Z,8.80
2019-04-18T21:19:53.494Z,9.17
2019-04-18T21:22:23.822Z,9.13
2019-04-18T21:24:59.720Z,9.40
2019-04-18T21:27:37.384Z,9.07
2019-04-18T21:30:00.181Z,9.40
2019-04-18T21:32:31.936Z,8.57
2019-04-18T21:35:04.252Z,8.93
2019-04-18T21:37:38.541Z,8.30
2019-04-18T21:40:08.279Z,9.10
2019-04-18T21:42:36.096Z,8.70
2019-04-18T21:45:05.662Z,9.00
2019-04-18T21:47:36.684Z,9.40
2019-04-18T21:50:11.171Z,8.50
2019-04-18T21:52:38.379Z,8.67
2019-04-18T21:55:08.937Z,9.13
2019-04-18T21:57:41.199Z,9.00
2019-04-18T22:00:23.730Z,8.63
2019-04-18T22:02:50.685Z,8.70
2019-04-18T22:05:20.046Z,9.70
2019-04-18T22:07:58.139Z,9.00
2019-04-18T22:10:23.035Z,9.63
2019-04-18T22:12:53.378Z,9.00
2019-04-18T22:15:23.494Z,9.40
2019-04-18T22:17:53.733Z,8.80
2019-04-18T22:20:24.050Z,9.30
2019-04-18T22:22:54.888Z,9.07
2019-04-18T22:25:24.450Z,9.80
2019-04-18T22:27:55.772Z,8.77
2019-04-18T22:30:25.112Z,8.83
2019-04-18T22:33:12.483Z,9.77
2019-04-18T22:35:45.414Z,9.43
2019-04-18T22:38:16.361Z,9.33
2019-04-18T22:40:47.869Z,8.23
2019-04-18T22:43:15.805Z,8.60
2019-04-18T22:45:46.224Z,9.50
2019-04-18T22:48:17.858Z,8.80
2019-04-18T22:50:46.945Z,8.83
2019-04-18T22:53:16.601Z,9.20
2019-04-18T22:55:48.714Z,9.57
2019-04-18T22:58:18.649Z,9.77
2019-04-18T23:00:47.955Z,9.23
2019-04-18T23:03:17.668Z,10.00
2019-04-18T23:05:46.931Z,10.00
2019-04-18T23:08:25.333Z,9.37
2019-04-18T23:10:48.031Z,9.30
2019-04-18T23:13:23.559Z,9.50
2019-04-18T23:15:51.046Z,9.30
2019-04-18T23:18:23.610Z,9.00
2019-04-18T23:20:52.122Z,10.00
2019-04-18T23:23:22.681Z,10.87
2019-04-18T23:25:53.427Z,9.80
2019-04-18T23:28:25.464Z,10.13
2019-04-18T23:30:59.339Z,10.13
2019-04-18T23:33:25.567Z,9.87
2019-04-18T23:35:56.559Z,10.90
2019-04-18T23:38:35.699Z,9.63
2019-04-18T23:40:58.164Z,9.77
